Time;durP1;ratioP1;P1;durP2;ratioP2;P2;SDS_P1;SDS_P2;PMS_P1;PMS_P2;Temp;Humidity;BMP_temperature;BMP_pressure;BME280_temperature;BME280_humidity;BME280_pressure;Samples;Min_cycle;Max_cycle;Signal;HPM_P1;HPM_P2
2024/02/14 00:00:16;;;;;;;0.53;0.53;;;7.40;99.90;;;;;;4997975;28;20218;-87
2024/02/14 00:02:44;;;;;;;2.03;1.50;;;7.30;99.90;;;;;;5009723;28;20272;-88
2024/02/14 00:05:10;;;;;;;0.67;0.67;;;7.40;99.90;;;;;;5011753;28;20271;-88
2024/02/14 00:07:39;;;;;;;1.93;1.83;;;7.60;99.90;;;;;;4990394;28;20274;-89
2024/02/14 00:10:05;;;;;;;0.60;0.57;;;7.50;99.90;;;;;;4989220;28;20349;-88
2024/02/14 00:12:35;;;;;;;0.97;0.97;;;7.60;99.90;;;;;;4994366;28;20266;-88
2024/02/14 00:15:03;;;;;;;1.07;1.00;;;7.60;99.90;;;;;;4995795;28;20684;-87
2024/02/14 00:17:29;;;;;;;1.10;1.10;;;7.70;99.90;;;;;;5019788;28;20293;-87
2024/02/14 00:19:55;;;;;;;1.60;1.50;;;7.40;99.90;;;;;;4976762;28;20203;-88
2024/02/14 00:22:21;;;;;;;2.00;1.50;;;7.80;99.90;;;;;;4974814;28;20606;-88
2024/02/14 00:24:47;;;;;;;1.13;1.13;;;7.40;99.90;;;;;;4982943;28;20227;-87
2024/02/14 00:27:14;;;;;;;1.93;0.97;;;7.40;99.90;;;;;;4981799;28;20329;-89
2024/02/14 00:29:40;;;;;;;1.93;1.47;;;7.60;99.90;;;;;;4994275;28;20206;-87
2024/02/14 00:32:06;;;;;;;5.37;1.23;;;7.60;99.90;;;;;;5019063;28;20663;-87
2024/02/14 00:34:35;;;;;;;1.03;1.03;;;7.70;99.90;;;;;;5035837;28;20244;-87
2024/02/14 00:37:01;;;;;;;1.63;1.53;;;7.80;99.90;;;;;;4980875;28;20223;-88
2024/02/14 00:39:27;;;;;;;2.20;2.03;;;7.50;99.90;;;;;;4980866;28;20235;-87
2024/02/14 00:41:52;;;;;;;1.07;1.07;;;7.90;99.90;;;;;;4995475;28;20230;-87
2024/02/14 00:44:19;;;;;;;1.47;1.37;;;7.70;99.90;;;;;;5011025;28;20203;-87
2024/02/14 00:46:45;;;;;;;1.20;1.10;;;7.70;99.90;;;;;;5019520;28;20218;-87
2024/02/14 00:49:11;;;;;;;1.60;0.80;;;7.90;99.90;;;;;;5001371;28;20339;-87
2024/02/14 00:51:38;;;;;;;3.40;1.27;;;7.90;99.90;;;;;;5016073;28;20716;-87
2024/02/14 00:54:04;;;;;;;2.43;2.00;;;8.00;99.90;;;;;;4999821;28;20233;-88
2024/02/14 00:56:30;;;;;;;1.30;1.07;;;7.70;99.90;;;;;;4994574;28;20214;-87
2024/02/14 00:58:56;;;;;;;0.83;0.53;;;7.70;99.90;;;;;;5003625;28;20202;-87
2024/02/14 01:01:22;;;;;;;1.67;1.57;;;7.70;99.90;;;;;;5000672;28;20223;-88
2024/02/14 01:03:48;;;;;;;2.37;1.17;;;8.00;99.90;;;;;;4998078;28;20223;-86
2024/02/14 01:06:15;;;;;;;1.50;1.40;;;7.70;99.90;;;;;;4990560;28;20239;-87
2024/02/14 01:08:44;;;;;;;1.20;1.20;;;7.80;99.90;;;;;;4989816;28;20230;-87
2024/02/14 01:11:10;;;;;;;1.10;1.10;;;7.80;99.90;;;;;;4983048;28;20695;-87
2024/02/14 01:13:36;;;;;;;1.70;1.60;;;7.90;99.90;;;;;;5009251;28;21078;-86
2024/02/14 01:16:04;;;;;;;1.17;1.10;;;8.20;99.90;;;;;;4991914;28;20249;-86
2024/02/14 01:18:30;;;;;;;1.40;1.30;;;7.90;99.90;;;;;;5001506;28;20226;-87
2024/02/14 01:20:56;;;;;;;1.03;0.97;;;8.00;99.90;;;;;;5000956;28;20227;-86
2024/02/14 01:23:22;;;;;;;1.37;1.30;;;8.00;99.90;;;;;;4998706;28;20214;-87
2024/02/14 01:25:47;;;;;;;1.17;1.10;;;8.20;99.90;;;;;;4998835;28;20242;-87
2024/02/14 01:28:13;;;;;;;1.87;1.13;;;8.40;99.90;;;;;;5003395;28;20241;-86
2024/02/14 01:30:39;;;;;;;1.13;1.03;;;8.00;99.90;;;;;;4989215;28;20326;-86
2024/02/14 01:33:05;;;;;;;0.83;0.83;;;8.40;99.90;;;;;;4976807;28;20231;-86
2024/02/14 01:35:30;;;;;;;2.17;2.03;;;8.60;99.90;;;;;;4990697;28;20203;-87
2024/02/14 01:37:57;;;;;;;1.20;0.97;;;8.60;99.90;;;;;;5009605;28;20273;-86
2024/02/14 01:40:23;;;;;;;1.07;0.97;;;8.40;99.90;;;;;;5015113;28;20313;-87
2024/02/14 01:42:49;;;;;;;1.37;1.37;;;8.70;99.90;;;;;;5016202;28;20326;-88
2024/02/14 01:45:15;;;;;;;1.60;1.47;;;8.40;99.90;;;;;;5016762;28;20222;-87
2024/02/14 01:47:41;;;;;;;1.73;1.63;;;8.40;99.90;;;;;;5010887;28;20226;-88
2024/02/14 01:50:11;;;;;;;3.30;1.53;;;8.70;99.90;;;;;;5002447;28;20615;-87
2024/02/14 01:52:38;;;;;;;1.43;1.13;;;8.90;99.90;;;;;;5000523;28;20878;-87
2024/02/14 01:55:05;;;;;;;1.37;1.27;;;8.90;99.90;;;;;;5011595;28;20694;-86
2024/02/14 01:57:32;;;;;;;1.63;1.53;;;8.80;99.90;;;;;;5008534;28;20284;-86
2024/02/14 01:59:59;;;;;;;2.43;1.77;;;8.90;99.90;;;;;;5010402;28;20597;-86
2024/02/14 02:02:26;;;;;;;1.93;1.83;;;8.90;99.90;;;;;;5010333;28;20206;-87
2024/02/14 02:04:52;;;;;;;2.33;2.13;;;8.90;99.90;;;;;;5001835;28;20602;-86
2024/02/14 02:07:20;;;;;;;2.27;1.47;;;8.80;99.90;;;;;;5001159;28;20333;-86
2024/02/14 02:09:46;;;;;;;1.23;0.97;;;9.00;99.90;;;;;;4999687;28;20298;-87
2024/02/14 02:12:12;;;;;;;3.10;1.90;;;9.10;99.90;;;;;;4998299;28;20227;-87
2024/02/14 02:14:40;;;;;;;1.13;1.07;;;9.00;99.90;;;;;;5010267;28;20573;-87
2024/02/14 02:17:08;;;;;;;0.90;0.90;;;8.90;99.90;;;;;;5003512;28;20216;-87
2024/02/14 02:19:34;;;;;;;5.60;2.87;;;9.00;99.90;;;;;;5018703;28;20226;-87
2024/02/14 02:22:00;;;;;;;1.90;0.93;;;9.10;99.90;;;;;;5017315;28;20235;-89
2024/02/14 02:24:26;;;;;;;1.20;1.20;;;9.20;99.90;;;;;;5002878;28;20852;-87
2024/02/14 02:26:52;;;;;;;2.00;1.57;;;9.00;99.90;;;;;;4993839;28;20247;-87
2024/02/14 02:29:19;;;;;;;1.30;1.20;;;9.10;99.90;;;;;;4978578;28;20243;-86
2024/02/14 02:31:46;;;;;;;2.03;1.93;;;9.00;99.90;;;;;;4996761;28;20280;-86
2024/02/14 02:34:12;;;;;;;1.53;1.43;;;9.00;99.90;;;;;;5013585;28;20226;-86
2024/02/14 02:36:39;;;;;;;2.03;1.80;;;9.00;99.90;;;;;;4999738;28;20230;-87
2024/02/14 02:39:07;;;;;;;3.87;2.13;;;9.10;99.90;;;;;;5006791;28;20237;-87
2024/02/14 02:41:33;;;;;;;1.10;0.87;;;9.10;99.90;;;;;;5004397;28;20207;-86
2024/02/14 02:43:59;;;;;;;1.43;1.33;;;9.30;99.90;;;;;;5021310;28;20202;-86
2024/02/14 02:46:25;;;;;;;0.90;0.83;;;9.40;99.90;;;;;;5021052;28;20230;-87
2024/02/14 02:48:54;;;;;;;2.23;2.13;;;9.10;99.90;;;;;;5004492;28;20237;-86
2024/02/14 02:51:20;;;;;;;0.77;0.70;;;9.40;99.90;;;;;;5013808;28;20268;-86
2024/02/14 02:53:47;;;;;;;0.93;0.90;;;9.40;99.90;;;;;;5020660;28;20813;-87
2024/02/14 02:56:14;;;;;;;1.50;1.40;;;9.20;99.90;;;;;;5002729;28;20198;-87
2024/02/14 02:58:40;;;;;;;1.43;1.33;;;9.40;99.90;;;;;;4994297;28;20338;-86
2024/02/14 03:01:11;;;;;;;0.50;0.50;;;9.20;99.90;;;;;;5004893;28;20257;-87
2024/02/14 03:03:38;;;;;;;2.10;1.87;;;9.40;99.90;;;;;;5003838;28;20699;-87
2024/02/14 03:06:05;;;;;;;3.53;2.03;;;9.40;99.90;;;;;;4998213;28;20695;-87
2024/02/14 03:08:34;;;;;;;1.27;1.20;;;9.30;99.90;;;;;;5012812;28;20202;-87
2024/02/14 03:11:09;;;;;;;0.70;0.70;;;9.50;99.90;;;;;;5022522;28;20647;-88
2024/02/14 03:13:35;;;;;;;0.57;0.57;;;9.70;99.90;;;;;;4993763;28;20241;-89
2024/02/14 03:16:02;;;;;;;1.10;0.97;;;9.50;99.90;;;;;;4989760;28;20310;-88
2024/02/14 03:18:27;;;;;;;1.60;1.07;;;9.60;99.90;;;;;;4974230;28;20254;-88
2024/02/14 03:20:53;;;;;;;0.67;0.67;;;9.90;99.90;;;;;;4990052;28;20255;-89
2024/02/14 03:23:20;;;;;;;1.40;1.40;;;9.60;99.90;;;;;;4974322;28;20207;-88
2024/02/14 03:25:45;;;;;;;0.33;0.33;;;9.90;99.90;;;;;;4974065;28;20227;-89
2024/02/14 03:28:13;;;;;;;1.30;0.83;;;9.80;99.90;;;;;;4990839;28;20258;-87
2024/02/14 03:30:41;;;;;;;0.33;0.33;;;10.00;99.90;;;;;;4989759;28;20228;-87
2024/02/14 03:33:10;;;;;;;2.70;1.13;;;10.10;99.90;;;;;;4973977;28;20238;-88
2024/02/14 03:35:36;;;;;;;0.47;0.47;;;10.00;99.90;;;;;;4973986;28;20243;-86
2024/02/14 03:38:03;;;;;;;1.07;1.00;;;10.00;99.90;;;;;;4973621;28;20242;-88
2024/02/14 03:40:30;;;;;;;1.57;1.17;;;10.20;99.90;;;;;;4991323;28;20263;-88
2024/02/14 03:42:56;;;;;;;1.23;1.10;;;10.20;99.90;;;;;;4974378;28;20220;-88
2024/02/14 03:45:23;;;;;;;1.50;0.70;;;10.20;99.90;;;;;;4989761;28;20274;-89
2024/02/14 03:47:48;;;;;;;2.03;1.53;;;10.00;99.90;;;;;;4988455;28;21193;-87
2024/02/14 03:50:15;;;;;;;1.00;1.00;;;10.20;99.90;;;;;;4973772;28;20204;-86
2024/02/14 03:52:44;;;;;;;1.83;1.37;;;10.20;99.90;;;;;;4973581;28;20224;-86
2024/02/14 03:55:13;;;;;;;0.77;0.77;;;10.10;99.90;;;;;;4987902;28;20267;-86
2024/02/14 03:57:39;;;;;;;2.43;1.10;;;10.30;99.90;;;;;;4971161;28;20251;-90
2024/02/14 04:00:10;;;;;;;0.20;0.20;;;10.20;99.90;;;;;;4989245;28;20227;-86
2024/02/14 04:02:36;;;;;;;2.20;1.33;;;10.20;99.90;;;;;;4989061;28;20196;-87
2024/02/14 04:05:05;;;;;;;0.83;0.57;;;10.20;99.90;;;;;;4972243;28;20707;-87
2024/02/14 04:07:31;;;;;;;0.80;0.80;;;10.20;99.90;;;;;;4972060;28;20299;-87
2024/02/14 04:09:57;;;;;;;0.63;0.63;;;10.20;99.90;;;;;;4972193;28;20235;-87
2024/02/14 04:12:23;;;;;;;0.33;0.33;;;10.40;99.90;;;;;;4973838;28;20236;-86
2024/02/14 04:14:49;;;;;;;0.30;0.30;;;10.40;99.90;;;;;;4993370;28;20315;-87
2024/02/14 04:17:14;;;;;;;0.20;0.20;;;10.50;99.90;;;;;;5001479;28;20203;-87
2024/02/14 04:19:40;;;;;;;0.60;0.60;;;10.20;99.90;;;;;;5000867;28;20296;-87
2024/02/14 04:22:07;;;;;;;5.50;0.87;;;10.40;99.90;;;;;;5000541;28;20582;-87
2024/02/14 04:24:36;;;;;;;0.67;0.67;;;10.20;99.90;;;;;;5004262;28;20226;-87
2024/02/14 04:27:05;;;;;;;0.70;0.60;;;10.40;99.90;;;;;;5000452;28;20238;-87
2024/02/14 04:29:32;;;;;;;3.50;1.33;;;10.50;99.90;;;;;;5001316;28;20202;-87
2024/02/14 04:32:02;;;;;;;0.37;0.37;;;10.40;99.90;;;;;;5001012;28;20257;-87
2024/02/14 04:34:29;;;;;;;1.10;0.80;;;10.30;99.90;;;;;;4999489;28;20303;-87
2024/02/14 04:36:56;;;;;;;0.90;0.90;;;10.50;99.90;;;;;;5000244;28;20820;-88
2024/02/14 04:39:22;;;;;;;1.23;0.70;;;10.40;99.90;;;;;;4999839;28;20215;-87
2024/02/14 04:41:49;;;;;;;0.90;0.90;;;10.60;99.90;;;;;;5009095;28;20345;-89
2024/02/14 04:44:15;;;;;;;1.40;1.30;;;10.50;99.90;;;;;;5002041;28;20218;-88
2024/02/14 04:46:43;;;;;;;1.63;0.63;;;10.50;99.90;;;;;;5015464;28;20235;-88
2024/02/14 04:49:09;;;;;;;2.00;0.57;;;10.60;99.90;;;;;;4999359;28;20215;-88
2024/02/14 04:51:35;;;;;;;0.83;0.70;;;10.50;99.90;;;;;;4999379;28;20230;-88
2024/02/14 04:54:01;;;;;;;0.57;0.57;;;10.40;99.90;;;;;;5001527;28;20211;-88
2024/02/14 04:56:27;;;;;;;0.33;0.33;;;10.60;99.90;;;;;;4997679;28;20265;-88
2024/02/14 04:58:54;;;;;;;1.13;0.40;;;10.70;99.90;;;;;;5017698;28;20560;-88
2024/02/14 05:01:20;;;;;;;0.47;0.47;;;10.50;99.90;;;;;;5000302;28;20269;-87
2024/02/14 05:03:46;;;;;;;2.10;1.10;;;10.50;99.90;;;;;;4986133;28;20223;-87
2024/02/14 05:06:12;;;;;;;1.97;1.37;;;10.70;99.90;;;;;;5016386;28;20242;-88
2024/02/14 05:08:38;;;;;;;1.57;0.60;;;10.70;99.90;;;;;;5000161;28;20210;-87
2024/02/14 05:11:04;;;;;;;0.37;0.37;;;10.70;99.90;;;;;;4999375;28;20199;-88
2024/02/14 05:13:30;;;;;;;2.30;0.73;;;10.50;99.90;;;;;;4993527;28;20591;-87
2024/02/14 05:15:56;;;;;;;0.97;0.97;;;10.70;99.90;;;;;;5007213;28;20222;-87
2024/02/14 05:18:22;;;;;;;0.63;0.60;;;10.50;99.90;;;;;;4987969;28;20237;-88
2024/02/14 05:20:49;;;;;;;0.50;0.50;;;10.50;99.90;;;;;;4986711;28;20827;-86
2024/02/14 05:23:17;;;;;;;0.53;0.33;;;10.50;99.90;;;;;;4972114;28;20668;-88
2024/02/14 05:25:43;;;;;;;0.33;0.33;;;10.50;99.90;;;;;;4983259;28;20247;-87
2024/02/14 05:28:13;;;;;;;0.20;0.20;;;10.50;99.90;;;;;;4987451;28;20227;-87
2024/02/14 05:30:42;;;;;;;0.63;0.63;;;10.50;99.90;;;;;;4981444;28;20326;-87
2024/02/14 05:33:08;;;;;;;0.83;0.83;;;10.70;99.90;;;;;;4987070;28;20219;-87
2024/02/14 05:35:33;;;;;;;11.27;0.70;;;10.60;99.90;;;;;;4971321;28;20210;-87
2024/02/14 05:37:59;;;;;;;3.00;1.07;;;10.60;99.90;;;;;;4995772;28;20203;-87
2024/02/14 05:40:25;;;;;;;1.97;1.33;;;10.50;99.90;;;;;;4987876;28;20253;-86
2024/02/14 05:42:51;;;;;;;1.00;0.60;;;10.40;99.90;;;;;;4987239;28;20703;-87
2024/02/14 05:45:17;;;;;;;3.03;1.27;;;10.40;99.90;;;;;;4962679;28;20211;-87
2024/02/14 05:47:43;;;;;;;0.77;0.47;;;10.40;99.90;;;;;;4990716;28;20312;-88
2024/02/14 05:50:11;;;;;;;0.60;0.60;;;10.60;99.90;;;;;;4991951;28;20199;-89
2024/02/14 05:52:38;;;;;;;6.90;1.50;;;10.60;99.90;;;;;;4990480;28;20565;-88
2024/02/14 05:55:05;;;;;;;2.43;0.33;;;10.50;99.90;;;;;;4988736;28;20235;-88
2024/02/14 05:57:31;;;;;;;1.77;0.87;;;10.60;99.90;;;;;;5000478;28;20242;-88
2024/02/14 05:59:57;;;;;;;1.70;1.10;;;10.60;99.90;;;;;;4993301;28;20219;-88
2024/02/14 06:02:23;;;;;;;5.50;1.60;;;10.50;99.90;;;;;;4994491;28;20217;-88
2024/02/14 06:04:48;;;;;;;11.37;0.70;;;10.70;99.90;;;;;;5000881;28;20223;-88
2024/02/14 06:07:14;;;;;;;1.40;1.27;;;10.60;99.90;;;;;;4992340;28;20235;-88
2024/02/14 06:09:40;;;;;;;8.00;5.07;;;10.90;99.90;;;;;;4991208;28;20238;-88
2024/02/14 06:12:07;;;;;;;0.43;0.43;;;10.90;99.90;;;;;;4963473;28;20214;-88
2024/02/14 06:14:34;;;;;;;7.43;1.50;;;11.00;99.90;;;;;;4993814;28;20259;-88
2024/02/14 06:17:00;;;;;;;0.37;0.37;;;10.80;99.90;;;;;;5011184;28;20199;-88
2024/02/14 06:19:27;;;;;;;3.30;1.07;;;10.80;99.90;;;;;;4991452;28;20227;-88
2024/02/14 06:21:53;;;;;;;7.93;1.53;;;10.80;99.90;;;;;;5010707;28;20572;-88
2024/02/14 06:24:19;;;;;;;2.23;1.47;;;10.80;99.90;;;;;;4990414;28;20289;-88
2024/02/14 06:26:45;;;;;;;5.33;2.17;;;10.90;99.90;;;;;;4980671;28;20721;-87
2024/02/14 06:29:11;;;;;;;1.80;0.70;;;10.80;99.90;;;;;;4975444;28;20199;-88
2024/02/14 06:31:37;;;;;;;1.20;0.67;;;10.90;99.90;;;;;;5008692;28;20835;-89
2024/02/14 06:34:03;;;;;;;1.77;0.93;;;10.70;99.90;;;;;;5009599;28;20219;-88
2024/02/14 06:36:28;;;;;;;5.77;1.50;;;10.90;99.90;;;;;;5009934;28;20254;-88
2024/02/14 06:38:54;;;;;;;4.43;1.27;;;10.90;99.90;;;;;;4992954;28;20254;-88
2024/02/14 06:41:20;;;;;;;12.00;3.17;;;10.70;99.90;;;;;;4995278;28;20302;-89
2024/02/14 06:43:46;;;;;;;14.37;0.83;;;10.70;99.90;;;;;;4975255;28;20223;-90
2024/02/14 06:46:12;;;;;;;4.77;2.13;;;10.70;99.90;;;;;;4985975;28;20263;-89
2024/02/14 06:48:38;;;;;;;8.70;1.23;;;10.80;99.90;;;;;;4981692;28;20251;-88
2024/02/14 06:51:07;;;;;;;2.87;1.20;;;10.80;99.90;;;;;;4991877;28;20312;-88
2024/02/14 06:53:33;;;;;;;1.80;1.20;;;10.70;99.90;;;;;;4974514;28;20235;-88
2024/02/14 06:55:58;;;;;;;6.70;0.67;;;10.80;99.90;;;;;;4983010;28;20637;-90
2024/02/14 06:58:24;;;;;;;2.07;0.97;;;10.80;99.90;;;;;;5004123;28;20219;-88
2024/02/14 07:00:50;;;;;;;7.87;2.60;;;10.80;99.90;;;;;;5009141;28;20230;-87
2024/02/14 07:03:16;;;;;;;0.73;0.73;;;10.80;99.90;;;;;;4994130;28;20235;-87
2024/02/14 07:05:42;;;;;;;3.13;1.57;;;10.80;99.90;;;;;;5007036;28;20231;-89
2024/02/14 07:08:10;;;;;;;2.33;1.03;;;10.80;99.90;;;;;;4973509;28;20270;-89
2024/02/14 07:10:36;;;;;;;11.43;2.50;;;10.70;99.90;;;;;;5008903;28;20223;-87
2024/02/14 07:13:03;;;;;;;1.40;1.30;;;10.60;99.90;;;;;;4987470;28;20226;-89
2024/02/14 07:15:28;;;;;;;7.00;1.37;;;10.80;99.90;;;;;;5004641;28;20303;-87
2024/02/14 07:17:55;;;;;;;16.03;2.07;;;10.80;99.90;;;;;;4984769;28;20310;-88
2024/02/14 07:20:22;;;;;;;1.37;1.27;;;10.80;99.90;;;;;;5026092;28;20225;-88
2024/02/14 07:22:52;;;;;;;0.50;0.50;;;10.80;99.90;;;;;;4989436;28;20228;-89
2024/02/14 07:25:19;;;;;;;2.50;1.47;;;10.90;99.90;;;;;;4994503;28;20601;-87
2024/02/14 07:27:46;;;;;;;29.00;2.37;;;10.90;99.90;;;;;;4990068;28;20240;-88
2024/02/14 07:30:12;;;;;;;0.30;0.30;;;10.90;99.90;;;;;;5005357;28;20673;-88
2024/02/14 07:32:38;;;;;;;0.50;0.50;;;10.80;99.90;;;;;;4974252;28;20417;-88
2024/02/14 07:35:05;;;;;;;1.87;0.97;;;10.80;99.90;;;;;;4983276;28;20717;-87
2024/02/14 07:37:30;;;;;;;12.17;0.83;;;10.90;99.90;;;;;;5005189;28;20278;-88
2024/02/14 07:39:56;;;;;;;0.70;0.40;;;10.70;99.90;;;;;;4969364;28;20223;-88
2024/02/14 07:42:22;;;;;;;12.37;1.20;;;10.80;99.90;;;;;;4992279;28;20226;-88
2024/02/14 07:44:48;;;;;;;1.73;1.03;;;11.00;99.90;;;;;;4976198;28;20246;-87
2024/02/14 07:47:19;;;;;;;6.43;1.33;;;10.90;99.90;;;;;;4993039;28;20281;-90
2024/02/14 07:49:45;;;;;;;1.67;1.57;;;10.80;99.90;;;;;;4990375;28;20723;-89
2024/02/14 07:52:10;;;;;;;1.93;1.70;;;10.90;99.90;;;;;;4969891;28;20306;-88
2024/02/14 07:54:36;;;;;;;5.90;1.27;;;11.00;99.90;;;;;;4990871;28;20257;-88
2024/02/14 07:57:03;;;;;;;4.23;1.80;;;11.00;99.90;;;;;;4962777;28;20273;-89
2024/02/14 07:59:29;;;;;;;8.60;2.77;;;10.90;99.90;;;;;;5010130;28;20207;-87
2024/02/14 08:01:56;;;;;;;6.17;1.57;;;11.10;99.90;;;;;;4993247;28;20199;-88
2024/02/14 08:04:22;;;;;;;27.27;3.00;;;11.10;99.90;;;;;;4993546;28;20269;-88
2024/02/14 08:06:49;;;;;;;4.60;2.40;;;11.10;99.90;;;;;;5003758;28;20235;-87
2024/02/14 08:09:15;;;;;;;3.20;0.93;;;10.90;99.90;;;;;;4996994;28;20241;-88
2024/02/14 08:11:41;;;;;;;5.83;1.90;;;10.90;99.90;;;;;;5009837;28;20682;-88
2024/02/14 08:14:07;;;;;;;3.13;1.17;;;11.00;99.90;;;;;;5026404;28;20232;-87
2024/02/14 08:16:33;;;;;;;8.33;1.43;;;11.00;99.90;;;;;;4992611;28;20230;-89
2024/02/14 08:19:02;;;;;;;3.80;2.03;;;11.10;99.90;;;;;;4985475;28;20219;-88
2024/02/14 08:21:28;;;;;;;10.17;1.70;;;11.10;99.90;;;;;;5002597;28;21288;-88
2024/02/14 08:23:55;;;;;;;3.43;1.37;;;11.00;99.90;;;;;;4989349;28;20220;-88
2024/02/14 08:26:24;;;;;;;6.23;2.37;;;11.10;99.90;;;;;;4958541;28;20326;-89
2024/02/14 08:28:50;;;;;;;4.00;1.53;;;11.10;99.90;;;;;;4997827;28;20223;-88
2024/02/14 08:31:16;;;;;;;2.80;2.13;;;11.10;99.90;;;;;;4984764;28;20215;-89
2024/02/14 08:33:42;;;;;;;15.87;1.87;;;11.20;99.90;;;;;;4997915;28;20599;-90
2024/02/14 08:36:08;;;;;;;19.97;2.33;;;11.10;99.90;;;;;;5009986;28;20258;-87
2024/02/14 08:38:38;;;;;;;1.00;0.97;;;11.20;99.90;;;;;;4993121;28;20273;-87
2024/02/14 08:41:07;;;;;;;3.07;1.67;;;11.40;99.90;;;;;;5010207;28;20210;-90
2024/02/14 08:43:33;;;;;;;3.40;1.13;;;11.40;99.90;;;;;;4991806;28;20310;-87
2024/02/14 08:45:59;;;;;;;3.87;1.47;;;11.40;99.90;;;;;;5007035;28;20302;-88
2024/02/14 08:48:27;;;;;;;3.33;1.03;;;11.30;99.90;;;;;;4999684;28;20224;-89
2024/02/14 08:50:54;;;;;;;23.00;2.63;;;11.50;99.90;;;;;;4948277;28;20290;-88
2024/02/14 08:53:19;;;;;;;2.33;1.33;;;11.50;99.90;;;;;;4990265;28;20829;-88
2024/02/14 08:55:46;;;;;;;1.10;1.10;;;11.50;99.90;;;;;;5009000;28;20281;-89
2024/02/14 08:58:12;;;;;;;3.57;1.73;;;11.50;99.90;;;;;;4989842;28;20278;-90
2024/02/14 09:00:39;;;;;;;1.77;0.73;;;11.50;99.90;;;;;;4967776;28;20230;-88
2024/02/14 09:03:05;;;;;;;0.40;0.40;;;11.40;99.90;;;;;;4989012;28;20223;-89
2024/02/14 09:05:35;;;;;;;2.20;1.17;;;11.50;99.90;;;;;;4973642;28;20208;-89
2024/02/14 09:08:04;;;;;;;2.73;1.47;;;11.40;99.90;;;;;;5008317;28;20261;-89
2024/02/14 09:10:30;;;;;;;2.97;2.67;;;11.40;99.90;;;;;;4990224;28;20747;-89
2024/02/14 09:12:56;;;;;;;1.37;1.20;;;11.50;99.90;;;;;;4970168;28;20226;-89
2024/02/14 09:15:22;;;;;;;8.97;0.70;;;11.40;99.90;;;;;;5009028;28;20246;-89
2024/02/14 09:17:48;;;;;;;4.30;1.70;;;11.40;99.90;;;;;;4992606;28;20228;-89
2024/02/14 09:20:20;;;;;;;23.30;3.37;;;11.40;99.90;;;;;;4979588;28;20222;-89
2024/02/14 09:22:46;;;;;;;7.60;2.70;;;11.40;99.90;;;;;;4993572;28;20232;-89
2024/02/14 09:25:13;;;;;;;3.00;2.47;;;11.40;99.90;;;;;;4983861;28;20231;-89
2024/02/14 09:27:40;;;;;;;4.33;1.97;;;11.40;99.90;;;;;;4995940;28;20239;-90
2024/02/14 09:30:07;;;;;;;12.57;2.07;;;11.40;99.90;;;;;;4983493;28;20227;-88
2024/02/14 09:32:33;;;;;;;2.60;1.57;;;11.50;99.90;;;;;;4993532;28;20656;-89
2024/02/14 09:34:59;;;;;;;5.70;3.00;;;11.60;99.90;;;;;;5002897;28;20214;-90
2024/02/14 09:37:28;;;;;;;3.23;1.13;;;11.50;99.90;;;;;;4985926;28;20219;-89
2024/02/14 09:39:54;;;;;;;1.53;1.17;;;11.50;99.90;;;;;;5002133;28;20222;-89
2024/02/14 09:42:28;;;;;;;13.77;2.93;;;11.60;99.90;;;;;;4987244;28;20231;-89
2024/02/14 09:44:58;;;;;;;4.80;1.60;;;11.70;99.90;;;;;;5001505;28;20223;-90
2024/02/14 09:47:25;;;;;;;2.97;1.60;;;11.70;99.90;;;;;;5002368;28;20584;-89
2024/02/14 09:49:53;;;;;;;2.90;2.53;;;11.60;99.90;;;;;;5018346;28;20230;-90
2024/02/14 09:52:20;;;;;;;1.07;1.07;;;11.70;99.90;;;;;;4995046;28;20662;-90
2024/02/14 09:54:46;;;;;;;2.50;2.13;;;11.60;99.90;;;;;;4987963;28;20604;-90
2024/02/14 09:57:16;;;;;;;7.73;1.53;;;11.70;99.90;;;;;;4996518;28;20215;-89
2024/02/14 09:59:43;;;;;;;3.27;2.10;;;11.60;99.90;;;;;;4995051;28;20238;-89
2024/02/14 10:02:10;;;;;;;3.50;1.37;;;11.60;99.90;;;;;;4995855;28;20242;-89
2024/02/14 10:04:37;;;;;;;2.17;1.33;;;11.70;99.90;;;;;;4995902;28;20335;-89
2024/02/14 10:07:04;;;;;;;2.67;1.50;;;11.60;99.90;;;;;;4995563;28;20678;-89
2024/02/14 10:09:31;;;;;;;1.17;1.10;;;11.60;99.90;;;;;;4996204;28;20784;-89
2024/02/14 10:11:57;;;;;;;3.27;2.07;;;11.60;99.90;;;;;;4996471;28;20680;-89
2024/02/14 10:14:23;;;;;;;1.63;1.30;;;11.60;99.90;;;;;;4996532;28;20737;-88
2024/02/14 10:16:49;;;;;;;5.43;1.27;;;11.70;99.90;;;;;;5001354;28;20219;-89
2024/02/14 10:19:17;;;;;;;3.60;1.83;;;11.80;99.90;;;;;;4981349;28;20327;-89
2024/02/14 10:21:43;;;;;;;2.93;1.37;;;11.80;99.90;;;;;;5006681;28;20251;-89
2024/02/14 10:24:10;;;;;;;0.67;0.67;;;11.70;99.90;;;;;;4992118;28;20322;-89
2024/02/14 10:26:37;;;;;;;1.23;1.00;;;11.90;99.90;;;;;;4960155;28;20255;-89
2024/02/14 10:29:03;;;;;;;3.80;1.20;;;11.90;99.90;;;;;;4975404;28;20195;-89
2024/02/14 10:31:29;;;;;;;1.23;1.13;;;12.00;99.90;;;;;;4992109;28;20265;-88
2024/02/14 10:33:59;;;;;;;4.83;0.80;;;11.80;99.90;;;;;;4988775;28;20282;-88
2024/02/14 10:36:25;;;;;;;2.40;1.70;;;12.00;99.90;;;;;;5005806;28;20805;-89
2024/02/14 10:38:51;;;;;;;0.67;0.67;;;12.00;99.90;;;;;;5011345;28;20651;-89
2024/02/14 10:41:17;;;;;;;1.60;1.50;;;12.00;99.90;;;;;;5011635;28;20235;-89
2024/02/14 10:43:46;;;;;;;4.10;2.27;;;12.00;99.90;;;;;;5009280;28;20230;-88
2024/02/14 10:46:22;;;;;;;1.73;1.23;;;11.90;99.90;;;;;;5002102;28;20314;-89
2024/02/14 10:48:53;;;;;;;1.93;1.30;;;11.90;99.90;;;;;;4988702;28;20710;-88
2024/02/14 10:51:22;;;;;;;4.37;2.57;;;12.00;99.90;;;;;;5011517;28;20314;-89
2024/02/14 10:53:51;;;;;;;0.70;0.70;;;12.10;99.90;;;;;;5027297;28;20219;-89
2024/02/14 10:56:19;;;;;;;1.77;0.90;;;12.00;99.90;;;;;;5011972;28;20290;-88
2024/02/14 10:58:49;;;;;;;1.60;1.03;;;12.00;99.90;;;;;;4986664;28;20691;-89
2024/02/14 11:01:16;;;;;;;5.43;1.83;;;12.00;99.90;;;;;;4989337;28;20719;-88
2024/02/14 11:03:44;;;;;;;2.27;0.93;;;12.20;99.90;;;;;;4992086;28;20228;-89
2024/02/14 11:06:16;;;;;;;1.40;1.03;;;12.10;99.90;;;;;;4997976;28;20226;-89
2024/02/14 11:08:53;;;;;;;2.67;1.03;;;12.20;99.90;;;;;;5011017;28;20203;-88
2024/02/14 11:11:19;;;;;;;4.83;2.43;;;12.10;99.90;;;;;;5009566;28;20194;-89
2024/02/14 11:13:45;;;;;;;0.93;0.93;;;12.20;99.90;;;;;;4990033;28;20238;-89
2024/02/14 11:16:12;;;;;;;6.47;2.43;;;12.10;99.90;;;;;;4957901;28;20298;-89
2024/02/14 11:18:38;;;;;;;6.70;1.17;;;12.30;99.90;;;;;;4974125;28;20220;-89
2024/02/14 11:21:15;;;;;;;1.27;0.83;;;12.20;99.90;;;;;;4990020;28;20223;-88
2024/02/14 11:23:42;;;;;;;4.80;0.73;;;12.20;99.90;;;;;;5004625;28;20207;-89
2024/02/14 11:26:15;;;;;;;0.60;0.50;;;12.20;99.90;;;;;;4975061;28;20228;-88
2024/02/14 11:28:42;;;;;;;4.33;0.93;;;12.40;99.90;;;;;;4991398;28;20224;-89
2024/02/14 11:31:09;;;;;;;0.93;0.87;;;12.40;99.90;;;;;;4975566;28;20254;-89
2024/02/14 11:33:36;;;;;;;1.63;1.10;;;12.30;99.90;;;;;;4975412;28;20223;-88
2024/02/14 11:36:14;;;;;;;3.17;1.00;;;12.40;99.90;;;;;;4974674;28;20223;-89
2024/02/14 11:38:41;;;;;;;0.77;0.43;;;12.30;99.90;;;;;;4991208;28;20204;-89
2024/02/14 11:41:06;;;;;;;4.97;1.27;;;12.40;99.90;;;;;;4975629;28;20290;-88
2024/02/14 11:43:32;;;;;;;0.77;0.77;;;12.30;99.90;;;;;;4973606;28;20291;-91
2024/02/14 11:45:58;;;;;;;1.20;0.97;;;12.40;99.90;;;;;;4974862;28;20249;-87
2024/02/14 11:48:24;;;;;;;1.03;1.00;;;12.40;99.90;;;;;;4974551;28;20298;-91
2024/02/14 11:50:53;;;;;;;2.40;1.33;;;12.40;99.90;;;;;;4973943;28;20583;-88
2024/02/14 11:53:20;;;;;;;4.40;1.03;;;12.50;99.90;;;;;;4975326;28;20208;-88
2024/02/14 11:55:47;;;;;;;1.37;1.20;;;12.50;99.90;;;;;;4975920;28;20263;-89
2024/02/14 11:58:14;;;;;;;4.30;1.10;;;12.60;99.90;;;;;;4975501;28;20771;-88
2024/02/14 12:00:41;;;;;;;0.70;0.63;;;12.60;99.90;;;;;;4990307;28;20216;-88
2024/02/14 12:03:25;;;;;;;4.00;1.87;;;12.60;99.90;;;;;;4973578;28;20258;-90
2024/02/14 12:05:52;;;;;;;1.83;0.87;;;12.70;99.90;;;;;;5006884;28;20419;-88
2024/02/14 12:08:19;;;;;;;16.20;1.23;;;12.70;99.90;;;;;;4990552;28;20294;-91
2024/02/14 12:10:49;;;;;;;0.63;0.50;;;12.70;99.90;;;;;;4974380;28;20261;-87
2024/02/14 12:13:17;;;;;;;0.57;0.43;;;12.70;99.90;;;;;;4991595;28;20689;-88
2024/02/14 12:15:48;;;;;;;14.77;2.07;;;12.50;99.90;;;;;;5018011;28;20349;-90
2024/02/14 12:18:16;;;;;;;1.20;0.97;;;12.60;99.90;;;;;;5017634;28;20273;-88
2024/02/14 12:20:46;;;;;;;1.10;0.57;;;12.50;99.90;;;;;;5006787;28;20297;-89
2024/02/14 12:23:17;;;;;;;0.50;0.40;;;12.40;99.90;;;;;;5007524;28;20608;-88
2024/02/14 12:25:44;;;;;;;0.50;0.50;;;12.50;99.90;;;;;;5004313;28;20254;-88
2024/02/14 12:28:19;;;;;;;0.80;0.80;;;12.50;99.90;;;;;;5000995;28;20258;-88
2024/02/14 12:30:52;;;;;;;0.70;0.70;;;12.40;99.90;;;;;;5000969;28;20233;-87
2024/02/14 12:33:18;;;;;;;0.40;0.40;;;12.50;99.90;;;;;;5010542;28;20230;-88
2024/02/14 12:35:45;;;;;;;0.50;0.50;;;12.60;99.90;;;;;;4995715;28;20281;-88
2024/02/14 12:38:14;;;;;;;0.57;0.57;;;12.50;99.90;;;;;;4996078;28;20203;-88
2024/02/14 12:40:44;;;;;;;1.80;1.20;;;12.50;99.90;;;;;;5013329;28;20223;-88
2024/02/14 12:43:11;;;;;;;0.97;0.97;;;12.40;99.90;;;;;;5013857;28;20653;-88
2024/02/14 12:45:38;;;;;;;4.57;1.53;;;12.40;99.90;;;;;;5031029;28;20226;-88